sensor_id;sensor_type;location;lat;lon;timestamp;P1;durP1;ratioP1;P2;durP2;ratioP2
78312;SDS011;67568;47.438;21.408;2023-04-25T00:00:50;15.77;;;10.50;;
78312;SDS011;67568;47.438;21.408;2023-04-25T00:03:17;17.27;;;11.07;;
78312;SDS011;67568;47.438;21.408;2023-04-25T00:05:44;17.38;;;10.60;;
78312;SDS011;67568;47.438;21.408;2023-04-25T00:08:11;16.35;;;10.68;;
78312;SDS011;67568;47.438;21.408;2023-04-25T00:10:38;17.45;;;10.38;;
78312;SDS011;67568;47.438;21.408;2023-04-25T00:13:05;18.17;;;10.93;;
78312;SDS011;67568;47.438;21.408;2023-04-25T00:15:31;19.00;;;11.43;;
78312;SDS011;67568;47.438;21.408;2023-04-25T00:17:58;22.00;;;11.93;;
78312;SDS011;67568;47.438;21.408;2023-04-25T00:20:24;17.83;;;10.82;;
78312;SDS011;67568;47.438;21.408;2023-04-25T00:22:51;18.90;;;11.32;;
78312;SDS011;67568;47.438;21.408;2023-04-25T00:25:17;19.40;;;11.43;;
78312;SDS011;67568;47.438;21.408;2023-04-25T00:27:44;18.58;;;11.52;;
78312;SDS011;67568;47.438;21.408;2023-04-25T00:30:11;18.35;;;11.55;;
78312;SDS011;67568;47.438;21.408;2023-04-25T00:32:38;16.42;;;11.00;;
78312;SDS011;67568;47.438;21.408;2023-04-25T00:35:05;18.13;;;11.30;;
78312;SDS011;67568;47.438;21.408;2023-04-25T00:37:31;19.43;;;10.83;;
78312;SDS011;67568;47.438;21.408;2023-04-25T00:39:58;18.05;;;11.25;;
78312;SDS011;67568;47.438;21.408;2023-04-25T00:42:25;17.05;;;11.15;;
78312;SDS011;67568;47.438;21.408;2023-04-25T00:44:52;17.65;;;11.35;;
78312;SDS011;67568;47.438;21.408;2023-04-25T00:47:19;18.67;;;11.40;;
78312;SDS011;67568;47.438;21.408;2023-04-25T00:49:46;15.50;;;10.43;;
78312;SDS011;67568;47.438;21.408;2023-04-25T00:52:12;16.02;;;9.82;;
78312;SDS011;67568;47.438;21.408;2023-04-25T00:54:39;19.52;;;11.85;;
78312;SDS011;67568;47.438;21.408;2023-04-25T00:57:06;16.33;;;10.85;;
78312;SDS011;67568;47.438;21.408;2023-04-25T00:59:32;18.65;;;10.60;;
78312;SDS011;67568;47.438;21.408;2023-04-25T01:02:00;18.63;;;10.90;;
78312;SDS011;67568;47.438;21.408;2023-04-25T01:04:27;17.90;;;11.30;;
78312;SDS011;67568;47.438;21.408;2023-04-25T01:06:54;17.45;;;10.68;;
78312;SDS011;67568;47.438;21.408;2023-04-25T01:09:21;16.63;;;10.95;;
78312;SDS011;67568;47.438;21.408;2023-04-25T01:11:48;17.80;;;10.88;;
78312;SDS011;67568;47.438;21.408;2023-04-25T01:14:15;15.90;;;10.87;;
78312;SDS011;67568;47.438;21.408;2023-04-25T01:16:42;17.88;;;10.77;;
78312;SDS011;67568;47.438;21.408;2023-04-25T01:19:10;17.88;;;10.68;;
78312;SDS011;67568;47.438;21.408;2023-04-25T01:21:37;17.52;;;10.35;;
78312;SDS011;67568;47.438;21.408;2023-04-25T01:24:04;15.68;;;10.65;;
78312;SDS011;67568;47.438;21.408;2023-04-25T01:26:31;18.10;;;10.33;;
78312;SDS011;67568;47.438;21.408;2023-04-25T01:28:59;15.43;;;10.98;;
78312;SDS011;67568;47.438;21.408;2023-04-25T01:31:26;18.45;;;11.35;;
78312;SDS011;67568;47.438;21.408;2023-04-25T01:33:54;15.45;;;10.40;;
78312;SDS011;67568;47.438;21.408;2023-04-25T01:36:21;16.35;;;10.85;;
78312;SDS011;67568;47.438;21.408;2023-04-25T01:38:47;16.17;;;11.10;;
78312;SDS011;67568;47.438;21.408;2023-04-25T01:41:15;14.65;;;9.85;;
78312;SDS011;67568;47.438;21.408;2023-04-25T01:43:42;17.60;;;10.55;;
78312;SDS011;67568;47.438;21.408;2023-04-25T01:46:09;16.33;;;11.27;;
78312;SDS011;67568;47.438;21.408;2023-04-25T01:48:37;17.45;;;10.68;;
78312;SDS011;67568;47.438;21.408;2023-04-25T01:51:04;15.73;;;9.93;;
78312;SDS011;67568;47.438;21.408;2023-04-25T01:53:30;16.50;;;10.55;;
78312;SDS011;67568;47.438;21.408;2023-04-25T01:55:57;16.42;;;10.70;;
78312;SDS011;67568;47.438;21.408;2023-04-25T01:58:24;18.05;;;10.82;;
78312;SDS011;67568;47.438;21.408;2023-04-25T02:00:50;16.50;;;10.70;;
78312;SDS011;67568;47.438;21.408;2023-04-25T02:03:17;17.87;;;10.87;;
78312;SDS011;67568;47.438;21.408;2023-04-25T02:05:44;16.10;;;11.00;;
78312;SDS011;67568;47.438;21.408;2023-04-25T02:08:11;18.58;;;11.38;;
78312;SDS011;67568;47.438;21.408;2023-04-25T02:10:37;18.15;;;10.95;;
78312;SDS011;67568;47.438;21.408;2023-04-25T02:13:04;16.65;;;11.75;;
78312;SDS011;67568;47.438;21.408;2023-04-25T02:15:31;17.83;;;11.13;;
78312;SDS011;67568;47.438;21.408;2023-04-25T02:17:57;16.05;;;11.10;;
78312;SDS011;67568;47.438;21.408;2023-04-25T02:20:24;15.68;;;11.00;;
78312;SDS011;67568;47.438;21.408;2023-04-25T02:22:51;15.18;;;10.85;;
78312;SDS011;67568;47.438;21.408;2023-04-25T02:25:18;15.77;;;10.80;;
78312;SDS011;67568;47.438;21.408;2023-04-25T02:27:46;21.20;;;11.33;;
78312;SDS011;67568;47.438;21.408;2023-04-25T02:30:13;18.77;;;11.25;;
78312;SDS011;67568;47.438;21.408;2023-04-25T02:32:40;18.08;;;11.70;;
78312;SDS011;67568;47.438;21.408;2023-04-25T02:35:07;16.20;;;10.98;;
78312;SDS011;67568;47.438;21.408;2023-04-25T02:37:34;15.63;;;10.65;;
78312;SDS011;67568;47.438;21.408;2023-04-25T02:40:01;17.23;;;11.80;;
78312;SDS011;67568;47.438;21.408;2023-04-25T02:42:29;16.50;;;10.70;;
78312;SDS011;67568;47.438;21.408;2023-04-25T02:44:56;17.40;;;11.85;;
78312;SDS011;67568;47.438;21.408;2023-04-25T02:47:23;19.17;;;12.07;;
78312;SDS011;67568;47.438;21.408;2023-04-25T02:49:53;18.15;;;12.27;;
78312;SDS011;67568;47.438;21.408;2023-04-25T02:52:19;19.93;;;12.07;;
78312;SDS011;67568;47.438;21.408;2023-04-25T02:54:46;20.75;;;12.95;;
78312;SDS011;67568;47.438;21.408;2023-04-25T02:57:13;17.30;;;12.50;;
78312;SDS011;67568;47.438;21.408;2023-04-25T02:59:39;16.05;;;11.32;;
78312;SDS011;67568;47.438;21.408;2023-04-25T03:02:06;18.88;;;12.98;;
78312;SDS011;67568;47.438;21.408;2023-04-25T03:04:32;19.40;;;12.50;;
78312;SDS011;67568;47.438;21.408;2023-04-25T03:06:59;17.27;;;12.88;;
78312;SDS011;67568;47.438;21.408;2023-04-25T03:09:29;19.17;;;12.48;;
78312;SDS011;67568;47.438;21.408;2023-04-25T03:11:58;18.55;;;13.18;;
78312;SDS011;67568;47.438;21.408;2023-04-25T03:14:25;17.40;;;12.30;;
78312;SDS011;67568;47.438;21.408;2023-04-25T03:16:54;17.47;;;13.13;;
78312;SDS011;67568;47.438;21.408;2023-04-25T03:19:21;21.27;;;13.43;;
78312;SDS011;67568;47.438;21.408;2023-04-25T03:21:48;18.92;;;12.60;;
78312;SDS011;67568;47.438;21.408;2023-04-25T03:24:17;19.60;;;13.05;;
78312;SDS011;67568;47.438;21.408;2023-04-25T03:26:44;20.48;;;13.27;;
78312;SDS011;67568;47.438;21.408;2023-04-25T03:29:10;18.60;;;13.10;;
78312;SDS011;67568;47.438;21.408;2023-04-25T03:31:37;20.52;;;13.10;;
78312;SDS011;67568;47.438;21.408;2023-04-25T03:34:04;23.75;;;13.63;;
78312;SDS011;67568;47.438;21.408;2023-04-25T03:36:31;19.48;;;13.38;;
78312;SDS011;67568;47.438;21.408;2023-04-25T03:39:01;19.50;;;13.32;;
78312;SDS011;67568;47.438;21.408;2023-04-25T03:41:28;19.97;;;13.43;;
78312;SDS011;67568;47.438;21.408;2023-04-25T03:43:55;18.13;;;12.63;;
78312;SDS011;67568;47.438;21.408;2023-04-25T03:46:21;19.83;;;13.70;;
78312;SDS011;67568;47.438;21.408;2023-04-25T03:48:48;20.80;;;14.05;;
78312;SDS011;67568;47.438;21.408;2023-04-25T03:51:18;23.27;;;13.55;;
78312;SDS011;67568;47.438;21.408;2023-04-25T03:53:45;21.10;;;13.20;;
78312;SDS011;67568;47.438;21.408;2023-04-25T03:56:11;20.13;;;14.23;;
78312;SDS011;67568;47.438;21.408;2023-04-25T03:58:38;21.08;;;14.02;;
78312;SDS011;67568;47.438;21.408;2023-04-25T04:01:05;19.73;;;13.15;;
78312;SDS011;67568;47.438;21.408;2023-04-25T04:03:31;19.58;;;13.70;;
78312;SDS011;67568;47.438;21.408;2023-04-25T04:05:58;22.40;;;15.20;;
78312;SDS011;67568;47.438;21.408;2023-04-25T04:08:25;23.08;;;15.57;;
78312;SDS011;67568;47.438;21.408;2023-04-25T04:10:51;21.90;;;14.45;;
78312;SDS011;67568;47.438;21.408;2023-04-25T04:13:18;20.92;;;15.30;;
78312;SDS011;67568;47.438;21.408;2023-04-25T04:15:44;20.63;;;14.40;;
78312;SDS011;67568;47.438;21.408;2023-04-25T04:18:11;22.03;;;14.53;;
78312;SDS011;67568;47.438;21.408;2023-04-25T04:20:38;22.55;;;14.85;;
78312;SDS011;67568;47.438;21.408;2023-04-25T04:23:04;25.75;;;15.27;;
78312;SDS011;67568;47.438;21.408;2023-04-25T04:25:34;22.38;;;14.90;;
78312;SDS011;67568;47.438;21.408;2023-04-25T04:28:01;23.35;;;14.80;;
78312;SDS011;67568;47.438;21.408;2023-04-25T04:30:27;24.93;;;15.00;;
78312;SDS011;67568;47.438;21.408;2023-04-25T04:32:55;23.00;;;14.75;;
78312;SDS011;67568;47.438;21.408;2023-04-25T04:35:23;22.05;;;15.05;;
78312;SDS011;67568;47.438;21.408;2023-04-25T04:37:50;21.48;;;15.15;;
78312;SDS011;67568;47.438;21.408;2023-04-25T04:40:17;24.60;;;16.10;;
78312;SDS011;67568;47.438;21.408;2023-04-25T04:42:44;22.30;;;15.10;;
78312;SDS011;67568;47.438;21.408;2023-04-25T04:45:11;22.15;;;15.07;;
78312;SDS011;67568;47.438;21.408;2023-04-25T04:47:38;23.95;;;15.93;;
78312;SDS011;67568;47.438;21.408;2023-04-25T04:50:06;21.30;;;14.65;;
78312;SDS011;67568;47.438;21.408;2023-04-25T04:52:34;23.80;;;16.15;;
78312;SDS011;67568;47.438;21.408;2023-04-25T04:55:04;27.00;;;17.63;;
78312;SDS011;67568;47.438;21.408;2023-04-25T04:57:34;22.13;;;15.40;;
78312;SDS011;67568;47.438;21.408;2023-04-25T05:00:01;24.15;;;15.48;;
78312;SDS011;67568;47.438;21.408;2023-04-25T05:02:28;26.10;;;15.35;;
78312;SDS011;67568;47.438;21.408;2023-04-25T05:04:55;23.70;;;15.38;;
78312;SDS011;67568;47.438;21.408;2023-04-25T05:07:23;25.90;;;15.37;;
78312;SDS011;67568;47.438;21.408;2023-04-25T05:09:49;26.85;;;15.60;;
78312;SDS011;67568;47.438;21.408;2023-04-25T05:12:16;22.35;;;15.02;;
78312;SDS011;67568;47.438;21.408;2023-04-25T05:14:46;22.73;;;15.32;;
78312;SDS011;67568;47.438;21.408;2023-04-25T05:17:13;20.27;;;14.60;;
78312;SDS011;67568;47.438;21.408;2023-04-25T05:19:39;23.33;;;15.10;;
78312;SDS011;67568;47.438;21.408;2023-04-25T05:22:06;25.88;;;14.93;;
78312;SDS011;67568;47.438;21.408;2023-04-25T05:24:33;26.38;;;15.00;;
78312;SDS011;67568;47.438;21.408;2023-04-25T05:27:00;22.52;;;14.73;;
78312;SDS011;67568;47.438;21.408;2023-04-25T05:29:26;19.85;;;13.98;;
78312;SDS011;67568;47.438;21.408;2023-04-25T05:31:53;18.03;;;12.47;;
78312;SDS011;67568;47.438;21.408;2023-04-25T05:34:19;20.27;;;13.80;;
78312;SDS011;67568;47.438;21.408;2023-04-25T05:36:46;20.50;;;13.93;;
78312;SDS011;67568;47.438;21.408;2023-04-25T05:39:13;21.50;;;14.48;;
78312;SDS011;67568;47.438;21.408;2023-04-25T05:41:40;21.02;;;13.32;;
78312;SDS011;67568;47.438;21.408;2023-04-25T05:44:07;21.40;;;13.57;;
78312;SDS011;67568;47.438;21.408;2023-04-25T05:46:33;18.30;;;11.77;;
78312;SDS011;67568;47.438;21.408;2023-04-25T05:49:00;18.73;;;12.15;;
78312;SDS011;67568;47.438;21.408;2023-04-25T05:51:28;18.83;;;12.77;;
78312;SDS011;67568;47.438;21.408;2023-04-25T05:53:55;23.02;;;13.35;;
78312;SDS011;67568;47.438;21.408;2023-04-25T05:56:21;19.17;;;13.00;;
78312;SDS011;67568;47.438;21.408;2023-04-25T05:58:48;20.05;;;12.25;;
78312;SDS011;67568;47.438;21.408;2023-04-25T06:01:15;20.35;;;12.90;;
78312;SDS011;67568;47.438;21.408;2023-04-25T06:03:49;23.65;;;13.27;;
78312;SDS011;67568;47.438;21.408;2023-04-25T06:06:18;19.05;;;12.98;;
78312;SDS011;67568;47.438;21.408;2023-04-25T06:08:48;19.37;;;13.90;;
78312;SDS011;67568;47.438;21.408;2023-04-25T06:11:15;19.85;;;12.73;;
78312;SDS011;67568;47.438;21.408;2023-04-25T06:13:41;21.33;;;14.18;;
78312;SDS011;67568;47.438;21.408;2023-04-25T06:16:09;21.33;;;14.65;;
78312;SDS011;67568;47.438;21.408;2023-04-25T06:18:36;21.95;;;14.45;;
78312;SDS011;67568;47.438;21.408;2023-04-25T06:21:03;23.57;;;14.70;;
78312;SDS011;67568;47.438;21.408;2023-04-25T06:23:30;21.17;;;14.95;;
78312;SDS011;67568;47.438;21.408;2023-04-25T06:25:57;22.17;;;14.57;;
78312;SDS011;67568;47.438;21.408;2023-04-25T06:28:24;25.55;;;17.02;;
78312;SDS011;67568;47.438;21.408;2023-04-25T06:31:01;23.60;;;15.40;;
78312;SDS011;67568;47.438;21.408;2023-04-25T06:33:28;24.17;;;15.63;;
78312;SDS011;67568;47.438;21.408;2023-04-25T06:36:00;22.77;;;15.68;;
78312;SDS011;67568;47.438;21.408;2023-04-25T06:38:38;23.25;;;15.77;;
78312;SDS011;67568;47.438;21.408;2023-04-25T06:41:08;25.05;;;15.95;;
78312;SDS011;67568;47.438;21.408;2023-04-25T06:43:36;23.15;;;16.08;;
78312;SDS011;67568;47.438;21.408;2023-04-25T06:46:05;26.43;;;15.47;;
78312;SDS011;67568;47.438;21.408;2023-04-25T06:48:32;25.38;;;14.98;;
78312;SDS011;67568;47.438;21.408;2023-04-25T06:51:15;26.00;;;16.50;;
78312;SDS011;67568;47.438;21.408;2023-04-25T06:53:49;25.33;;;15.60;;
78312;SDS011;67568;47.438;21.408;2023-04-25T06:56:16;27.85;;;16.92;;
78312;SDS011;67568;47.438;21.408;2023-04-25T06:58:44;24.50;;;16.27;;
78312;SDS011;67568;47.438;21.408;2023-04-25T07:01:10;26.60;;;17.00;;
78312;SDS011;67568;47.438;21.408;2023-04-25T07:03:39;30.95;;;18.15;;
78312;SDS011;67568;47.438;21.408;2023-04-25T07:06:13;31.10;;;17.67;;
78312;SDS011;67568;47.438;21.408;2023-04-25T07:08:40;34.13;;;18.50;;
78312;SDS011;67568;47.438;21.408;2023-04-25T07:11:10;28.87;;;17.87;;
78312;SDS011;67568;47.438;21.408;2023-04-25T07:13:38;27.73;;;18.33;;
78312;SDS011;67568;47.438;21.408;2023-04-25T07:16:07;28.73;;;18.25;;
78312;SDS011;67568;47.438;21.408;2023-04-25T07:18:34;28.45;;;17.13;;
78312;SDS011;67568;47.438;21.408;2023-04-25T07:21:01;31.27;;;17.92;;
78312;SDS011;67568;47.438;21.408;2023-04-25T07:23:28;30.93;;;18.53;;
78312;SDS011;67568;47.438;21.408;2023-04-25T07:26:04;29.75;;;17.92;;
78312;SDS011;67568;47.438;21.408;2023-04-25T07:28:36;27.48;;;17.15;;
78312;SDS011;67568;47.438;21.408;2023-04-25T07:31:11;28.85;;;18.27;;
78312;SDS011;67568;47.438;21.408;2023-04-25T07:33:51;31.50;;;17.83;;
78312;SDS011;67568;47.438;21.408;2023-04-25T07:36:30;27.47;;;17.53;;
78312;SDS011;67568;47.438;21.408;2023-04-25T07:38:57;28.95;;;17.75;;
78312;SDS011;67568;47.438;21.408;2023-04-25T07:41:29;29.27;;;17.88;;
78312;SDS011;67568;47.438;21.408;2023-04-25T07:44:12;33.38;;;18.58;;
78312;SDS011;67568;47.438;21.408;2023-04-25T07:46:43;33.63;;;18.92;;
78312;SDS011;67568;47.438;21.408;2023-04-25T07:49:24;28.60;;;16.90;;
78312;SDS011;67568;47.438;21.408;2023-04-25T07:51:54;28.50;;;17.63;;
78312;SDS011;67568;47.438;21.408;2023-04-25T07:54:35;25.33;;;14.40;;
78312;SDS011;67568;47.438;21.408;2023-04-25T07:57:04;22.65;;;12.85;;
78312;SDS011;67568;47.438;21.408;2023-04-25T07:59:40;19.95;;;11.80;;
78312;SDS011;67568;47.438;21.408;2023-04-25T08:02:38;19.23;;;11.80;;
78312;SDS011;67568;47.438;21.408;2023-04-25T08:05:25;22.65;;;12.48;;
78312;SDS011;67568;47.438;21.408;2023-04-25T08:07:55;20.55;;;12.25;;
78312;SDS011;67568;47.438;21.408;2023-04-25T08:10:22;18.23;;;10.50;;
78312;SDS011;67568;47.438;21.408;2023-04-25T08:12:49;18.90;;;11.57;;
78312;SDS011;67568;47.438;21.408;2023-04-25T08:15:15;18.97;;;11.23;;
78312;SDS011;67568;47.438;21.408;2023-04-25T08:17:48;18.75;;;10.82;;
78312;SDS011;67568;47.438;21.408;2023-04-25T08:20:18;18.23;;;10.52;;
78312;SDS011;67568;47.438;21.408;2023-04-25T08:22:50;21.08;;;10.32;;
78312;SDS011;67568;47.438;21.408;2023-04-25T08:25:20;20.10;;;11.02;;
78312;SDS011;67568;47.438;21.408;2023-04-25T08:27:48;18.63;;;10.40;;
78312;SDS011;67568;47.438;21.408;2023-04-25T08:30:36;17.13;;;9.70;;
78312;SDS011;67568;47.438;21.408;2023-04-25T08:33:03;17.15;;;9.55;;
78312;SDS011;67568;47.438;21.408;2023-04-25T08:35:30;15.70;;;9.40;;
78312;SDS011;67568;47.438;21.408;2023-04-25T08:37:56;15.30;;;8.95;;
78312;SDS011;67568;47.438;21.408;2023-04-25T08:40:23;17.33;;;9.23;;
78312;SDS011;67568;47.438;21.408;2023-04-25T08:42:53;17.23;;;9.10;;
78312;SDS011;67568;47.438;21.408;2023-04-25T08:45:21;16.10;;;9.82;;
78312;SDS011;67568;47.438;21.408;2023-04-25T08:47:48;14.32;;;8.45;;
78312;SDS011;67568;47.438;21.408;2023-04-25T08:50:18;17.83;;;8.43;;
78312;SDS011;67568;47.438;21.408;2023-04-25T08:52:45;14.67;;;8.50;;
78312;SDS011;67568;47.438;21.408;2023-04-25T08:55:13;13.38;;;7.28;;
78312;SDS011;67568;47.438;21.408;2023-04-25T08:57:40;12.45;;;7.55;;
78312;SDS011;67568;47.438;21.408;2023-04-25T09:00:09;13.90;;;7.38;;
78312;SDS011;67568;47.438;21.408;2023-04-25T09:02:36;14.45;;;7.05;;
78312;SDS011;67568;47.438;21.408;2023-04-25T09:05:04;13.50;;;7.27;;
78312;SDS011;67568;47.438;21.408;2023-04-25T09:07:32;11.88;;;6.70;;
78312;SDS011;67568;47.438;21.408;2023-04-25T09:09:59;11.98;;;6.57;;
78312;SDS011;67568;47.438;21.408;2023-04-25T09:12:26;11.02;;;6.20;;
78312;SDS011;67568;47.438;21.408;2023-04-25T09:15:03;11.07;;;6.20;;
78312;SDS011;67568;47.438;21.408;2023-04-25T09:17:49;12.87;;;7.47;;
78312;SDS011;67568;47.438;21.408;2023-04-25T09:20:21;11.30;;;6.80;;
78312;SDS011;67568;47.438;21.408;2023-04-25T09:22:48;12.52;;;6.60;;
78312;SDS011;67568;47.438;21.408;2023-04-25T09:25:15;11.52;;;5.70;;
78312;SDS011;67568;47.438;21.408;2023-04-25T09:27:51;10.73;;;5.78;;
78312;SDS011;67568;47.438;21.408;2023-04-25T09:30:28;9.10;;;5.13;;
78312;SDS011;67568;47.438;21.408;2023-04-25T09:32:56;10.85;;;5.28;;
78312;SDS011;67568;47.438;21.408;2023-04-25T09:35:24;9.30;;;5.80;;
78312;SDS011;67568;47.438;21.408;2023-04-25T09:37:51;8.63;;;4.93;;
78312;SDS011;67568;47.438;21.408;2023-04-25T09:40:18;9.05;;;4.80;;
78312;SDS011;67568;47.438;21.408;2023-04-25T09:42:45;7.03;;;4.07;;
78312;SDS011;67568;47.438;21.408;2023-04-25T09:45:14;8.95;;;4.55;;
78312;SDS011;67568;47.438;21.408;2023-04-25T09:47:41;8.73;;;4.38;;
78312;SDS011;67568;47.438;21.408;2023-04-25T09:50:14;8.10;;;4.22;;
78312;SDS011;67568;47.438;21.408;2023-04-25T09:53:01;8.45;;;3.90;;
78312;SDS011;67568;47.438;21.408;2023-04-25T09:55:51;7.67;;;4.13;;
78312;SDS011;67568;47.438;21.408;2023-04-25T09:58:20;7.15;;;4.05;;
78312;SDS011;67568;47.438;21.408;2023-04-25T10:00:50;6.80;;;4.05;;
78312;SDS011;67568;47.438;21.408;2023-04-25T10:03:18;7.15;;;3.90;;
78312;SDS011;67568;47.438;21.408;2023-04-25T10:05:46;8.65;;;4.40;;
78312;SDS011;67568;47.438;21.408;2023-04-25T10:08:24;8.40;;;4.40;;
78312;SDS011;67568;47.438;21.408;2023-04-25T10:11:01;8.38;;;3.90;;
78312;SDS011;67568;47.438;21.408;2023-04-25T10:13:33;7.32;;;3.67;;
78312;SDS011;67568;47.438;21.408;2023-04-25T10:16:01;9.02;;;3.78;;
78312;SDS011;67568;47.438;21.408;2023-04-25T10:18:32;7.30;;;3.80;;
78312;SDS011;67568;47.438;21.408;2023-04-25T10:21:00;8.23;;;3.93;;
78312;SDS011;67568;47.438;21.408;2023-04-25T10:23:30;8.32;;;3.58;;
78312;SDS011;67568;47.438;21.408;2023-04-25T10:26:00;10.35;;;4.22;;
78312;SDS011;67568;47.438;21.408;2023-04-25T10:28:28;11.18;;;3.85;;
78312;SDS011;67568;47.438;21.408;2023-04-25T10:33:40;18.00;;;3.67;;
78312;SDS011;67568;47.438;21.408;2023-04-25T10:36:18;9.77;;;3.90;;
78312;SDS011;67568;47.438;21.408;2023-04-25T10:38:53;9.00;;;3.63;;
78312;SDS011;67568;47.438;21.408;2023-04-25T10:41:20;10.45;;;4.13;;
78312;SDS011;67568;47.438;21.408;2023-04-25T10:43:58;7.53;;;3.55;;
78312;SDS011;67568;47.438;21.408;2023-04-25T10:46:26;7.87;;;3.17;;
78312;SDS011;67568;47.438;21.408;2023-04-25T10:48:55;8.25;;;3.50;;
78312;SDS011;67568;47.438;21.408;2023-04-25T10:51:26;9.48;;;3.65;;
78312;SDS011;67568;47.438;21.408;2023-04-25T10:54:28;7.53;;;3.72;;
78312;SDS011;67568;47.438;21.408;2023-04-25T10:56:58;10.68;;;3.10;;
78312;SDS011;67568;47.438;21.408;2023-04-25T10:59:24;8.47;;;3.20;;
78312;SDS011;67568;47.438;21.408;2023-04-25T11:01:51;9.48;;;3.30;;
78312;SDS011;67568;47.438;21.408;2023-04-25T11:04:20;11.05;;;3.33;;
78312;SDS011;67568;47.438;21.408;2023-04-25T11:09:46;7.18;;;3.50;;
78312;SDS011;67568;47.438;21.408;2023-04-25T11:12:13;8.83;;;3.80;;
78312;SDS011;67568;47.438;21.408;2023-04-25T11:14:39;9.52;;;3.92;;
78312;SDS011;67568;47.438;21.408;2023-04-25T11:17:06;8.80;;;3.95;;
78312;SDS011;67568;47.438;21.408;2023-04-25T11:19:33;9.32;;;3.55;;
78312;SDS011;67568;47.438;21.408;2023-04-25T11:22:01;7.10;;;3.90;;
78312;SDS011;67568;47.438;21.408;2023-04-25T11:24:32;7.73;;;4.03;;
78312;SDS011;67568;47.438;21.408;2023-04-25T11:27:01;7.32;;;3.75;;
78312;SDS011;67568;47.438;21.408;2023-04-25T11:29:29;6.75;;;3.83;;
78312;SDS011;67568;47.438;21.408;2023-04-25T11:31:56;6.25;;;3.10;;
78312;SDS011;67568;47.438;21.408;2023-04-25T11:34:23;5.03;;;2.60;;
78312;SDS011;67568;47.438;21.408;2023-04-25T11:36:51;6.47;;;3.30;;
78312;SDS011;67568;47.438;21.408;2023-04-25T11:39:19;7.68;;;3.17;;
78312;SDS011;67568;47.438;21.408;2023-04-25T11:41:46;6.82;;;3.05;;
78312;SDS011;67568;47.438;21.408;2023-04-25T11:44:16;5.25;;;2.53;;
78312;SDS011;67568;47.438;21.408;2023-04-25T11:46:44;5.53;;;2.67;;
78312;SDS011;67568;47.438;21.408;2023-04-25T11:49:11;4.97;;;2.63;;
78312;SDS011;67568;47.438;21.408;2023-04-25T11:51:41;5.18;;;2.38;;
78312;SDS011;67568;47.438;21.408;2023-04-25T11:54:13;5.50;;;2.60;;
78312;SDS011;67568;47.438;21.408;2023-04-25T11:56:46;5.38;;;2.50;;
78312;SDS011;67568;47.438;21.408;2023-04-25T11:59:13;5.47;;;2.15;;
78312;SDS011;67568;47.438;21.408;2023-04-25T12:01:40;5.03;;;2.13;;
78312;SDS011;67568;47.438;21.408;2023-04-25T12:04:15;5.45;;;2.25;;
78312;SDS011;67568;47.438;21.408;2023-04-25T12:06:47;5.95;;;2.28;;
78312;SDS011;67568;47.438;21.408;2023-04-25T12:09:17;5.43;;;2.40;;
78312;SDS011;67568;47.438;21.408;2023-04-25T12:11:47;5.68;;;2.50;;
78312;SDS011;67568;47.438;21.408;2023-04-25T12:14:22;5.90;;;2.60;;
78312;SDS011;67568;47.438;21.408;2023-04-25T12:16:57;5.63;;;2.83;;
78312;SDS011;67568;47.438;21.408;2023-04-25T12:19:26;4.90;;;2.22;;
78312;SDS011;67568;47.438;21.408;2023-04-25T12:21:57;4.13;;;1.50;;
78312;SDS011;67568;47.438;21.408;2023-04-25T12:24:25;3.53;;;1.30;;
78312;SDS011;67568;47.438;21.408;2023-04-25T12:27:04;2.20;;;1.00;;
78312;SDS011;67568;47.438;21.408;2023-04-25T12:29:33;2.47;;;1.10;;
78312;SDS011;67568;47.438;21.408;2023-04-25T12:32:14;2.40;;;0.80;;
78312;SDS011;67568;47.438;21.408;2023-04-25T12:34:41;3.38;;;1.10;;
78312;SDS011;67568;47.438;21.408;2023-04-25T12:37:08;3.08;;;1.00;;
78312;SDS011;67568;47.438;21.408;2023-04-25T12:39:35;4.33;;;1.00;;
78312;SDS011;67568;47.438;21.408;2023-04-25T12:42:04;2.72;;;1.00;;
78312;SDS011;67568;47.438;21.408;2023-04-25T12:44:34;2.60;;;1.17;;
78312;SDS011;67568;47.438;21.408;2023-04-25T12:47:01;3.78;;;1.10;;
78312;SDS011;67568;47.438;21.408;2023-04-25T12:49:28;2.25;;;1.25;;
78312;SDS011;67568;47.438;21.408;2023-04-25T12:51:57;3.03;;;1.10;;
78312;SDS011;67568;47.438;21.408;2023-04-25T12:54:24;2.53;;;1.20;;
78312;SDS011;67568;47.438;21.408;2023-04-25T12:56:51;3.75;;;1.50;;
78312;SDS011;67568;47.438;21.408;2023-04-25T12:59:18;3.88;;;1.45;;
78312;SDS011;67568;47.438;21.408;2023-04-25T13:01:45;5.80;;;1.52;;
78312;SDS011;67568;47.438;21.408;2023-04-25T13:04:12;3.57;;;1.40;;
78312;SDS011;67568;47.438;21.408;2023-04-25T13:06:38;3.63;;;1.48;;
78312;SDS011;67568;47.438;21.408;2023-04-25T13:09:05;4.53;;;1.55;;
78312;SDS011;67568;47.438;21.408;2023-04-25T13:11:32;5.63;;;1.77;;
78312;SDS011;67568;47.438;21.408;2023-04-25T13:14:00;3.38;;;1.70;;
78312;SDS011;67568;47.438;21.408;2023-04-25T13:16:32;4.40;;;1.93;;
78312;SDS011;67568;47.438;21.408;2023-04-25T13:19:01;5.20;;;1.70;;
78312;SDS011;67568;47.438;21.408;2023-04-25T13:21:29;3.58;;;1.77;;
78312;SDS011;67568;47.438;21.408;2023-04-25T13:23:57;4.57;;;1.80;;
78312;SDS011;67568;47.438;21.408;2023-04-25T13:26:23;4.70;;;2.25;;
78312;SDS011;67568;47.438;21.408;2023-04-25T13:28:50;5.50;;;2.00;;
78312;SDS011;67568;47.438;21.408;2023-04-25T13:31:17;4.13;;;1.75;;
78312;SDS011;67568;47.438;21.408;2023-04-25T13:33:43;3.90;;;2.08;;
78312;SDS011;67568;47.438;21.408;2023-04-25T13:36:10;4.03;;;1.95;;
78312;SDS011;67568;47.438;21.408;2023-04-25T13:38:40;5.57;;;2.40;;
78312;SDS011;67568;47.438;21.408;2023-04-25T13:41:06;6.17;;;2.60;;
78312;SDS011;67568;47.438;21.408;2023-04-25T13:43:33;5.28;;;2.08;;
78312;SDS011;67568;47.438;21.408;2023-04-25T13:46:00;5.93;;;2.35;;
78312;SDS011;67568;47.438;21.408;2023-04-25T13:48:26;6.10;;;2.47;;
78312;SDS011;67568;47.438;21.408;2023-04-25T13:50:53;6.40;;;2.50;;
78312;SDS011;67568;47.438;21.408;2023-04-25T13:53:20;7.73;;;2.17;;
78312;SDS011;67568;47.438;21.408;2023-04-25T13:55:46;2.97;;;1.30;;
78312;SDS011;67568;47.438;21.408;2023-04-25T13:58:13;3.22;;;1.20;;
78312;SDS011;67568;47.438;21.408;2023-04-25T14:00:39;3.03;;;0.90;;
78312;SDS011;67568;47.438;21.408;2023-04-25T14:03:06;3.45;;;1.30;;
78312;SDS011;67568;47.438;21.408;2023-04-25T14:05:37;2.47;;;1.10;;
78312;SDS011;67568;47.438;21.408;2023-04-25T14:08:05;4.45;;;1.50;;
78312;SDS011;67568;47.438;21.408;2023-04-25T14:10:35;3.08;;;1.40;;
78312;SDS011;67568;47.438;21.408;2023-04-25T14:13:03;4.88;;;1.70;;
78312;SDS011;67568;47.438;21.408;2023-04-25T14:15:33;3.70;;;1.48;;
78312;SDS011;67568;47.438;21.408;2023-04-25T14:18:01;2.90;;;1.23;;
78312;SDS011;67568;47.438;21.408;2023-04-25T14:20:28;3.33;;;1.02;;
78312;SDS011;67568;47.438;21.408;2023-04-25T14:22:55;4.03;;;1.10;;
78312;SDS011;67568;47.438;21.408;2023-04-25T14:25:24;3.53;;;1.30;;
78312;SDS011;67568;47.438;21.408;2023-04-25T14:27:51;3.20;;;1.20;;
78312;SDS011;67568;47.438;21.408;2023-04-25T14:30:18;5.97;;;1.30;;
78312;SDS011;67568;47.438;21.408;2023-04-25T14:32:47;2.47;;;0.90;;